sensor_id;sensor_type;location;lat;lon;timestamp;temperature;humidity
9915;DHT22;4996;48.746;9.174;2022-07-05T00:02:20;20.60;99.90
9915;DHT22;4996;48.746;9.174;2022-07-05T00:04:46;20.60;99.90
9915;DHT22;4996;48.746;9.174;2022-07-05T00:07:11;20.60;99.90
9915;DHT22;4996;48.746;9.174;2022-07-05T00:09:44;20.60;99.90
9915;DHT22;4996;48.746;9.174;2022-07-05T00:12:09;20.50;99.90
9915;DHT22;4996;48.746;9.174;2022-07-05T00:14:36;20.50;99.90
9915;DHT22;4996;48.746;9.174;2022-07-05T00:17:02;20.40;99.90
9915;DHT22;4996;48.746;9.174;2022-07-05T00:19:28;20.40;99.90
9915;DHT22;4996;48.746;9.174;2022-07-05T00:21:54;20.40;99.90
9915;DHT22;4996;48.746;9.174;2022-07-05T00:24:19;20.30;99.90
9915;DHT22;4996;48.746;9.174;2022-07-05T00:26:45;20.30;99.90
9915;DHT22;4996;48.746;9.174;2022-07-05T00:29:10;20.30;99.90
9915;DHT22;4996;48.746;9.174;2022-07-05T00:31:36;20.20;99.90
9915;DHT22;4996;48.746;9.174;2022-07-05T00:34:01;20.20;99.90
9915;DHT22;4996;48.746;9.174;2022-07-05T00:36:27;20.10;99.90
9915;DHT22;4996;48.746;9.174;2022-07-05T00:38:52;20.20;99.90
9915;DHT22;4996;48.746;9.174;2022-07-05T00:41:18;20.10;99.90
9915;DHT22;4996;48.746;9.174;2022-07-05T00:43:53;20.20;99.90
9915;DHT22;4996;48.746;9.174;2022-07-05T00:46:19;20.20;99.90
9915;DHT22;4996;48.746;9.174;2022-07-05T00:48:44;20.10;99.90
9915;DHT22;4996;48.746;9.174;2022-07-05T00:51:10;20.10;99.90
9915;DHT22;4996;48.746;9.174;2022-07-05T00:53:36;20.10;99.90
9915;DHT22;4996;48.746;9.174;2022-07-05T00:56:01;20.00;99.90
9915;DHT22;4996;48.746;9.174;2022-07-05T00:58:27;20.00;99.90
9915;DHT22;4996;48.746;9.174;2022-07-05T01:00:53;20.10;99.90
9915;DHT22;4996;48.746;9.174;2022-07-05T01:03:19;20.00;99.90
9915;DHT22;4996;48.746;9.174;2022-07-05T01:05:44;20.00;99.90
9915;DHT22;4996;48.746;9.174;2022-07-05T01:08:11;20.00;99.90
9915;DHT22;4996;48.746;9.174;2022-07-05T01:10:39;20.00;99.90
9915;DHT22;4996;48.746;9.174;2022-07-05T01:13:06;20.00;99.90
9915;DHT22;4996;48.746;9.174;2022-07-05T01:15:32;19.90;99.90
9915;DHT22;4996;48.746;9.174;2022-07-05T01:17:58;19.90;99.90
9915;DHT22;4996;48.746;9.174;2022-07-05T01:20:24;19.90;99.90
9915;DHT22;4996;48.746;9.174;2022-07-05T01:25:17;19.90;99.90
9915;DHT22;4996;48.746;9.174;2022-07-05T01:27:43;19.90;99.90
9915;DHT22;4996;48.746;9.174;2022-07-05T01:30:09;19.80;99.90
9915;DHT22;4996;48.746;9.174;2022-07-05T01:32:35;19.90;99.90
9915;DHT22;4996;48.746;9.174;2022-07-05T01:35:01;19.80;99.90
9915;DHT22;4996;48.746;9.174;2022-07-05T01:37:29;19.80;99.90
9915;DHT22;4996;48.746;9.174;2022-07-05T01:39:54;19.80;99.90
9915;DHT22;4996;48.746;9.174;2022-07-05T01:42:20;19.80;99.90
9915;DHT22;4996;48.746;9.174;2022-07-05T01:44:46;19.80;99.90
9915;DHT22;4996;48.746;9.174;2022-07-05T01:47:12;19.70;99.90
9915;DHT22;4996;48.746;9.174;2022-07-05T01:49:44;19.70;99.90
9915;DHT22;4996;48.746;9.174;2022-07-05T01:52:12;19.60;99.90
9915;DHT22;4996;48.746;9.174;2022-07-05T01:54:38;19.60;99.90
9915;DHT22;4996;48.746;9.174;2022-07-05T01:57:08;19.60;99.90
9915;DHT22;4996;48.746;9.174;2022-07-05T01:59:35;19.60;99.90
9915;DHT22;4996;48.746;9.174;2022-07-05T02:02:01;19.60;99.90
9915;DHT22;4996;48.746;9.174;2022-07-05T02:04:28;19.60;99.90
9915;DHT22;4996;48.746;9.174;2022-07-05T02:06:54;19.60;99.90
9915;DHT22;4996;48.746;9.174;2022-07-05T02:09:19;19.60;99.90
9915;DHT22;4996;48.746;9.174;2022-07-05T02:11:45;19.60;99.90
9915;DHT22;4996;48.746;9.174;2022-07-05T02:14:10;19.60;99.90
9915;DHT22;4996;48.746;9.174;2022-07-05T02:16:37;19.60;99.90
9915;DHT22;4996;48.746;9.174;2022-07-05T02:19:03;19.60;99.90
9915;DHT22;4996;48.746;9.174;2022-07-05T02:21:29;19.60;99.90
9915;DHT22;4996;48.746;9.174;2022-07-05T02:23:54;19.60;99.90
9915;DHT22;4996;48.746;9.174;2022-07-05T02:26:20;19.60;99.90
9915;DHT22;4996;48.746;9.174;2022-07-05T02:28:46;19.60;99.90
9915;DHT22;4996;48.746;9.174;2022-07-05T02:31:11;19.50;99.90
9915;DHT22;4996;48.746;9.174;2022-07-05T02:33:37;19.50;99.90
9915;DHT22;4996;48.746;9.174;2022-07-05T02:36:10;19.60;99.90
9915;DHT22;4996;48.746;9.174;2022-07-05T02:38:36;19.50;99.90
9915;DHT22;4996;48.746;9.174;2022-07-05T02:41:09;19.60;99.90
9915;DHT22;4996;48.746;9.174;2022-07-05T02:43:35;19.50;99.90
9915;DHT22;4996;48.746;9.174;2022-07-05T02:46:01;19.50;99.90
9915;DHT22;4996;48.746;9.174;2022-07-05T02:48:27;19.40;99.90
9915;DHT22;4996;48.746;9.174;2022-07-05T02:50:52;19.40;99.90
9915;DHT22;4996;48.746;9.174;2022-07-05T02:53:18;19.30;99.90
9915;DHT22;4996;48.746;9.174;2022-07-05T02:55:43;19.20;99.90
9915;DHT22;4996;48.746;9.174;2022-07-05T02:58:09;19.20;99.90
9915;DHT22;4996;48.746;9.174;2022-07-05T03:00:35;19.10;99.90
9915;DHT22;4996;48.746;9.174;2022-07-05T03:03:00;19.10;99.90
9915;DHT22;4996;48.746;9.174;2022-07-05T03:05:26;19.00;99.90
9915;DHT22;4996;48.746;9.174;2022-07-05T03:07:51;18.90;99.90
9915;DHT22;4996;48.746;9.174;2022-07-05T03:10:17;18.90;99.90
9915;DHT22;4996;48.746;9.174;2022-07-05T03:12:42;18.80;99.90
9915;DHT22;4996;48.746;9.174;2022-07-05T03:15:08;18.70;99.90
9915;DHT22;4996;48.746;9.174;2022-07-05T03:17:34;18.70;99.90
9915;DHT22;4996;48.746;9.174;2022-07-05T03:19:59;18.60;99.90
9915;DHT22;4996;48.746;9.174;2022-07-05T03:22:25;18.70;99.90
9915;DHT22;4996;48.746;9.174;2022-07-05T03:24:50;18.60;99.90
9915;DHT22;4996;48.746;9.174;2022-07-05T03:27:16;18.50;99.90
9915;DHT22;4996;48.746;9.174;2022-07-05T03:29:42;18.50;99.90
9915;DHT22;4996;48.746;9.174;2022-07-05T03:32:07;18.50;99.90
9915;DHT22;4996;48.746;9.174;2022-07-05T03:34:33;18.50;99.90
9915;DHT22;4996;48.746;9.174;2022-07-05T03:36:58;18.40;99.90
9915;DHT22;4996;48.746;9.174;2022-07-05T03:39:24;18.30;99.90
9915;DHT22;4996;48.746;9.174;2022-07-05T03:41:49;18.30;99.90
9915;DHT22;4996;48.746;9.174;2022-07-05T03:44:15;18.30;99.90
9915;DHT22;4996;48.746;9.174;2022-07-05T03:46:40;18.30;99.90
9915;DHT22;4996;48.746;9.174;2022-07-05T03:49:06;18.30;99.90
9915;DHT22;4996;48.746;9.174;2022-07-05T03:51:31;18.20;99.90
9915;DHT22;4996;48.746;9.174;2022-07-05T03:53:57;18.10;99.90
9915;DHT22;4996;48.746;9.174;2022-07-05T03:56:23;18.10;99.90
9915;DHT22;4996;48.746;9.174;2022-07-05T03:58:51;18.10;99.90
9915;DHT22;4996;48.746;9.174;2022-07-05T04:01:17;18.10;99.90
9915;DHT22;4996;48.746;9.174;2022-07-05T04:03:43;18.00;99.90
9915;DHT22;4996;48.746;9.174;2022-07-05T04:06:09;18.00;99.90
9915;DHT22;4996;48.746;9.174;2022-07-05T04:08:35;18.00;99.90
9915;DHT22;4996;48.746;9.174;2022-07-05T04:11:02;18.00;99.90
9915;DHT22;4996;48.746;9.174;2022-07-05T04:13:27;17.90;99.90
9915;DHT22;4996;48.746;9.174;2022-07-05T04:15:53;17.80;99.90
9915;DHT22;4996;48.746;9.174;2022-07-05T04:18:21;17.90;99.90
9915;DHT22;4996;48.746;9.174;2022-07-05T04:20:47;17.90;99.90
9915;DHT22;4996;48.746;9.174;2022-07-05T04:23:12;17.90;99.90
9915;DHT22;4996;48.746;9.174;2022-07-05T04:25:38;17.90;99.90
9915;DHT22;4996;48.746;9.174;2022-07-05T04:28:04;18.00;99.90
9915;DHT22;4996;48.746;9.174;2022-07-05T04:30:29;17.90;99.90
9915;DHT22;4996;48.746;9.174;2022-07-05T04:32:55;18.00;99.90
9915;DHT22;4996;48.746;9.174;2022-07-05T04:35:21;18.10;99.90
9915;DHT22;4996;48.746;9.174;2022-07-05T04:37:47;18.10;99.90
9915;DHT22;4996;48.746;9.174;2022-07-05T04:40:14;18.20;99.90
9915;DHT22;4996;48.746;9.174;2022-07-05T04:42:40;18.30;99.90
9915;DHT22;4996;48.746;9.174;2022-07-05T04:45:07;18.30;99.90
9915;DHT22;4996;48.746;9.174;2022-07-05T04:47:33;18.50;99.90
9915;DHT22;4996;48.746;9.174;2022-07-05T04:50:00;18.50;99.90
9915;DHT22;4996;48.746;9.174;2022-07-05T04:52:26;18.60;99.90
9915;DHT22;4996;48.746;9.174;2022-07-05T04:54:51;18.70;99.90
9915;DHT22;4996;48.746;9.174;2022-07-05T04:57:17;18.80;99.90
9915;DHT22;4996;48.746;9.174;2022-07-05T04:59:43;18.80;99.90
9915;DHT22;4996;48.746;9.174;2022-07-05T05:02:08;18.90;99.90
9915;DHT22;4996;48.746;9.174;2022-07-05T05:04:34;18.90;99.90
9915;DHT22;4996;48.746;9.174;2022-07-05T05:06:59;19.10;99.90
9915;DHT22;4996;48.746;9.174;2022-07-05T05:09:25;19.10;99.90
9915;DHT22;4996;48.746;9.174;2022-07-05T05:11:50;19.00;99.90
9915;DHT22;4996;48.746;9.174;2022-07-05T05:14:16;19.00;99.90
9915;DHT22;4996;48.746;9.174;2022-07-05T05:16:41;19.00;99.90
9915;DHT22;4996;48.746;9.174;2022-07-05T05:19:07;19.00;99.90
9915;DHT22;4996;48.746;9.174;2022-07-05T05:21:33;19.00;99.90
9915;DHT22;4996;48.746;9.174;2022-07-05T05:23:58;19.00;99.90
9915;DHT22;4996;48.746;9.174;2022-07-05T05:26:24;19.20;99.90
9915;DHT22;4996;48.746;9.174;2022-07-05T05:28:50;19.20;99.90
9915;DHT22;4996;48.746;9.174;2022-07-05T05:31:16;19.20;99.90
9915;DHT22;4996;48.746;9.174;2022-07-05T05:33:42;19.10;99.90
9915;DHT22;4996;48.746;9.174;2022-07-05T05:36:08;19.10;99.90
9915;DHT22;4996;48.746;9.174;2022-07-05T05:38:34;19.10;99.90
9915;DHT22;4996;48.746;9.174;2022-07-05T05:40:59;19.30;99.90
9915;DHT22;4996;48.746;9.174;2022-07-05T05:43:25;19.40;99.90
9915;DHT22;4996;48.746;9.174;2022-07-05T05:45:51;19.50;99.90
9915;DHT22;4996;48.746;9.174;2022-07-05T05:48:16;19.40;99.90
9915;DHT22;4996;48.746;9.174;2022-07-05T05:50:42;19.20;99.90
9915;DHT22;4996;48.746;9.174;2022-07-05T05:53:08;19.30;99.90
9915;DHT22;4996;48.746;9.174;2022-07-05T05:55:34;19.40;99.90
9915;DHT22;4996;48.746;9.174;2022-07-05T05:58:16;19.40;99.90
9915;DHT22;4996;48.746;9.174;2022-07-05T06:00:42;19.70;99.90
9915;DHT22;4996;48.746;9.174;2022-07-05T06:03:08;19.80;99.90
9915;DHT22;4996;48.746;9.174;2022-07-05T06:05:34;19.70;99.90
9915;DHT22;4996;48.746;9.174;2022-07-05T06:07:59;19.80;99.90
9915;DHT22;4996;48.746;9.174;2022-07-05T06:10:27;19.90;99.90
9915;DHT22;4996;48.746;9.174;2022-07-05T06:12:55;19.90;99.90
9915;DHT22;4996;48.746;9.174;2022-07-05T06:15:21;20.10;99.90
9915;DHT22;4996;48.746;9.174;2022-07-05T06:17:47;20.20;99.90
9915;DHT22;4996;48.746;9.174;2022-07-05T06:20:18;20.30;99.90
9915;DHT22;4996;48.746;9.174;2022-07-05T06:22:44;20.50;99.90
9915;DHT22;4996;48.746;9.174;2022-07-05T06:25:10;20.50;99.90
9915;DHT22;4996;48.746;9.174;2022-07-05T06:27:46;20.50;99.90
9915;DHT22;4996;48.746;9.174;2022-07-05T06:30:19;20.60;99.90
9915;DHT22;4996;48.746;9.174;2022-07-05T06:32:47;20.60;99.90
9915;DHT22;4996;48.746;9.174;2022-07-05T06:35:13;20.70;99.90
9915;DHT22;4996;48.746;9.174;2022-07-05T06:37:51;20.80;99.90
9915;DHT22;4996;48.746;9.174;2022-07-05T06:40:29;20.90;99.90
9915;DHT22;4996;48.746;9.174;2022-07-05T06:42:56;21.00;99.90
9915;DHT22;4996;48.746;9.174;2022-07-05T06:45:22;21.10;99.90
9915;DHT22;4996;48.746;9.174;2022-07-05T06:48:04;21.20;99.90
9915;DHT22;4996;48.746;9.174;2022-07-05T06:50:33;21.20;99.90
9915;DHT22;4996;48.746;9.174;2022-07-05T06:52:59;21.40;99.90
9915;DHT22;4996;48.746;9.174;2022-07-05T06:55:25;21.50;99.90
9915;DHT22;4996;48.746;9.174;2022-07-05T06:57:58;21.50;99.90
9915;DHT22;4996;48.746;9.174;2022-07-05T07:00:24;21.60;99.90
9915;DHT22;4996;48.746;9.174;2022-07-05T07:02:50;21.60;99.90
9915;DHT22;4996;48.746;9.174;2022-07-05T07:05:15;21.70;99.90
9915;DHT22;4996;48.746;9.174;2022-07-05T07:07:41;21.70;99.90
9915;DHT22;4996;48.746;9.174;2022-07-05T07:10:25;21.60;99.90
9915;DHT22;4996;48.746;9.174;2022-07-05T07:12:50;21.80;99.90
9915;DHT22;4996;48.746;9.174;2022-07-05T07:15:16;22.00;99.90
9915;DHT22;4996;48.746;9.174;2022-07-05T07:17:41;22.10;99.90
9915;DHT22;4996;48.746;9.174;2022-07-05T07:20:08;22.20;99.90
9915;DHT22;4996;48.746;9.174;2022-07-05T07:22:33;22.30;99.90
9915;DHT22;4996;48.746;9.174;2022-07-05T07:24:59;22.30;99.90
9915;DHT22;4996;48.746;9.174;2022-07-05T07:27:24;22.40;99.90
9915;DHT22;4996;48.746;9.174;2022-07-05T07:29:50;22.40;99.90
9915;DHT22;4996;48.746;9.174;2022-07-05T07:32:15;22.50;99.90
9915;DHT22;4996;48.746;9.174;2022-07-05T07:34:41;22.60;99.90
9915;DHT22;4996;48.746;9.174;2022-07-05T07:37:07;22.80;99.90
9915;DHT22;4996;48.746;9.174;2022-07-05T07:39:34;23.00;99.90
9915;DHT22;4996;48.746;9.174;2022-07-05T07:42:00;23.10;99.90
9915;DHT22;4996;48.746;9.174;2022-07-05T07:44:25;23.30;99.90
9915;DHT22;4996;48.746;9.174;2022-07-05T07:46:51;23.50;99.90
9915;DHT22;4996;48.746;9.174;2022-07-05T07:49:17;23.70;99.90
9915;DHT22;4996;48.746;9.174;2022-07-05T07:51:42;24.00;99.90
9915;DHT22;4996;48.746;9.174;2022-07-05T07:54:08;24.00;99.90
9915;DHT22;4996;48.746;9.174;2022-07-05T07:56:34;24.10;99.90
9915;DHT22;4996;48.746;9.174;2022-07-05T07:59:00;24.40;99.90
9915;DHT22;4996;48.746;9.174;2022-07-05T08:01:25;24.70;99.90
9915;DHT22;4996;48.746;9.174;2022-07-05T08:03:51;24.70;99.90
9915;DHT22;4996;48.746;9.174;2022-07-05T08:06:17;24.90;99.00
9915;DHT22;4996;48.746;9.174;2022-07-05T08:08:43;25.00;99.10
9915;DHT22;4996;48.746;9.174;2022-07-05T08:11:13;25.30;99.30
9915;DHT22;4996;48.746;9.174;2022-07-05T08:13:38;25.50;98.60
9915;DHT22;4996;48.746;9.174;2022-07-05T08:16:09;25.60;97.20
9915;DHT22;4996;48.746;9.174;2022-07-05T08:18:35;25.90;98.00
9915;DHT22;4996;48.746;9.174;2022-07-05T08:21:19;26.10;96.90
9915;DHT22;4996;48.746;9.174;2022-07-05T08:24:01;26.10;96.60
9915;DHT22;4996;48.746;9.174;2022-07-05T08:26:28;26.10;96.30
9915;DHT22;4996;48.746;9.174;2022-07-05T08:28:53;26.30;96.10
9915;DHT22;4996;48.746;9.174;2022-07-05T08:31:20;26.30;96.30
9915;DHT22;4996;48.746;9.174;2022-07-05T08:33:46;26.50;95.20
9915;DHT22;4996;48.746;9.174;2022-07-05T08:36:11;26.70;94.70
9915;DHT22;4996;48.746;9.174;2022-07-05T08:38:37;26.70;94.00
9915;DHT22;4996;48.746;9.174;2022-07-05T08:41:03;26.90;93.70
9915;DHT22;4996;48.746;9.174;2022-07-05T08:43:33;27.00;94.10
9915;DHT22;4996;48.746;9.174;2022-07-05T08:46:00;27.10;95.00
9915;DHT22;4996;48.746;9.174;2022-07-05T08:48:27;27.20;93.00
9915;DHT22;4996;48.746;9.174;2022-07-05T08:50:54;27.30;93.20
9915;DHT22;4996;48.746;9.174;2022-07-05T08:53:21;27.20;93.50
9915;DHT22;4996;48.746;9.174;2022-07-05T08:55:47;27.20;93.30
9915;DHT22;4996;48.746;9.174;2022-07-05T08:58:13;27.20;92.30
9915;DHT22;4996;48.746;9.174;2022-07-05T09:00:39;27.20;91.50
9915;DHT22;4996;48.746;9.174;2022-07-05T09:03:05;27.30;91.60
9915;DHT22;4996;48.746;9.174;2022-07-05T09:05:39;27.30;91.70
9915;DHT22;4996;48.746;9.174;2022-07-05T09:08:09;27.60;91.70
9915;DHT22;4996;48.746;9.174;2022-07-05T09:10:37;27.80;91.20
9915;DHT22;4996;48.746;9.174;2022-07-05T09:13:03;27.90;90.40
9915;DHT22;4996;48.746;9.174;2022-07-05T09:15:28;27.70;88.90
9915;DHT22;4996;48.746;9.174;2022-07-05T09:17:54;27.90;87.80
9915;DHT22;4996;48.746;9.174;2022-07-05T09:20:20;28.00;88.70
9915;DHT22;4996;48.746;9.174;2022-07-05T09:22:47;28.10;88.10
9915;DHT22;4996;48.746;9.174;2022-07-05T09:25:18;27.90;88.30
9915;DHT22;4996;48.746;9.174;2022-07-05T09:27:48;28.30;85.90
9915;DHT22;4996;48.746;9.174;2022-07-05T09:30:23;28.70;83.40
9915;DHT22;4996;48.746;9.174;2022-07-05T09:33:00;28.80;85.30
9915;DHT22;4996;48.746;9.174;2022-07-05T09:35:32;28.60;85.30
9915;DHT22;4996;48.746;9.174;2022-07-05T09:37:57;28.50;83.20
9915;DHT22;4996;48.746;9.174;2022-07-05T09:40:23;28.10;83.90
9915;DHT22;4996;48.746;9.174;2022-07-05T09:42:48;27.90;82.90
9915;DHT22;4996;48.746;9.174;2022-07-05T09:45:24;27.80;82.00
9915;DHT22;4996;48.746;9.174;2022-07-05T09:47:50;27.70;81.90
9915;DHT22;4996;48.746;9.174;2022-07-05T09:50:33;27.70;84.60
9915;DHT22;4996;48.746;9.174;2022-07-05T09:52:58;27.90;82.60
9915;DHT22;4996;48.746;9.174;2022-07-05T09:55:24;28.00;84.10
9915;DHT22;4996;48.746;9.174;2022-07-05T09:57:49;28.00;82.00
9915;DHT22;4996;48.746;9.174;2022-07-05T10:00:16;28.10;82.10
9915;DHT22;4996;48.746;9.174;2022-07-05T10:05:23;28.50;82.20
9915;DHT22;4996;48.746;9.174;2022-07-05T10:07:51;28.70;79.50
9915;DHT22;4996;48.746;9.174;2022-07-05T10:10:21;28.40;75.20
9915;DHT22;4996;48.746;9.174;2022-07-05T10:12:49;28.20;76.50
9915;DHT22;4996;48.746;9.174;2022-07-05T10:15:18;28.30;77.30
9915;DHT22;4996;48.746;9.174;2022-07-05T10:18:05;28.10;75.20
9915;DHT22;4996;48.746;9.174;2022-07-05T10:20:41;27.90;75.90
9915;DHT22;4996;48.746;9.174;2022-07-05T10:23:12;27.90;74.70
9915;DHT22;4996;48.746;9.174;2022-07-05T10:25:39;28.00;76.10
9915;DHT22;4996;48.746;9.174;2022-07-05T10:28:07;28.10;76.00
9915;DHT22;4996;48.746;9.174;2022-07-05T10:30:34;27.70;75.70
9915;DHT22;4996;48.746;9.174;2022-07-05T10:33:02;27.90;74.70
9915;DHT22;4996;48.746;9.174;2022-07-05T10:35:28;28.00;74.10
9915;DHT22;4996;48.746;9.174;2022-07-05T10:37:53;27.70;76.30
9915;DHT22;4996;48.746;9.174;2022-07-05T10:40:19;27.50;76.50
9915;DHT22;4996;48.746;9.174;2022-07-05T10:42:46;27.30;77.30
9915;DHT22;4996;48.746;9.174;2022-07-05T10:45:32;27.30;78.70
9915;DHT22;4996;48.746;9.174;2022-07-05T10:58:43;27.30;76.80
9915;DHT22;4996;48.746;9.174;2022-07-05T11:03:38;27.60;75.40
9915;DHT22;4996;48.746;9.174;2022-07-05T11:06:04;27.80;75.50
9915;DHT22;4996;48.746;9.174;2022-07-05T11:08:31;27.60;75.20
9915;DHT22;4996;48.746;9.174;2022-07-05T11:11:16;27.10;76.10
9915;DHT22;4996;48.746;9.174;2022-07-05T11:13:48;26.60;76.70
9915;DHT22;4996;48.746;9.174;2022-07-05T11:16:28;26.80;77.10
9915;DHT22;4996;48.746;9.174;2022-07-05T11:19:14;27.20;77.60
9915;DHT22;4996;48.746;9.174;2022-07-05T11:22:03;27.70;73.40
9915;DHT22;4996;48.746;9.174;2022-07-05T11:24:33;28.10;73.30
9915;DHT22;4996;48.746;9.174;2022-07-05T11:27:00;28.50;74.30
9915;DHT22;4996;48.746;9.174;2022-07-05T11:29:49;28.90;72.20
9915;DHT22;4996;48.746;9.174;2022-07-05T11:32:20;29.00;74.00
9915;DHT22;4996;48.746;9.174;2022-07-05T11:34:47;29.30;72.50
9915;DHT22;4996;48.746;9.174;2022-07-05T11:39:41;28.70;74.90
9915;DHT22;4996;48.746;9.174;2022-07-05T11:42:11;29.20;73.60
9915;DHT22;4996;48.746;9.174;2022-07-05T11:44:44;29.70;71.90
9915;DHT22;4996;48.746;9.174;2022-07-05T11:47:11;30.30;71.00
9915;DHT22;4996;48.746;9.174;2022-07-05T11:49:38;30.70;70.60
9915;DHT22;4996;48.746;9.174;2022-07-05T11:52:04;31.30;70.10
9915;DHT22;4996;48.746;9.174;2022-07-05T11:54:32;31.30;68.90
9915;DHT22;4996;48.746;9.174;2022-07-05T11:56:59;30.60;68.20
9915;DHT22;4996;48.746;9.174;2022-07-05T11:59:26;30.70;71.00
9915;DHT22;4996;48.746;9.174;2022-07-05T12:01:52;30.70;68.60
9915;DHT22;4996;48.746;9.174;2022-07-05T12:04:26;31.00;68.00
9915;DHT22;4996;48.746;9.174;2022-07-05T12:06:52;31.80;66.80
9915;DHT22;4996;48.746;9.174;2022-07-05T12:09:29;32.20;64.80
9915;DHT22;4996;48.746;9.174;2022-07-05T12:12:33;32.90;65.70
9915;DHT22;4996;48.746;9.174;2022-07-05T12:15:15;32.50;65.60
9915;DHT22;4996;48.746;9.174;2022-07-05T12:17:43;32.10;65.10
9915;DHT22;4996;48.746;9.174;2022-07-05T12:20:11;32.10;64.90
9915;DHT22;4996;48.746;9.174;2022-07-05T12:22:37;32.40;64.40
9915;DHT22;4996;48.746;9.174;2022-07-05T12:25:05;32.80;63.60
9915;DHT22;4996;48.746;9.174;2022-07-05T12:27:33;33.50;63.20
9915;DHT22;4996;48.746;9.174;2022-07-05T12:29:59;32.80;63.50
9915;DHT22;4996;48.746;9.174;2022-07-05T12:32:27;32.60;64.70
9915;DHT22;4996;48.746;9.174;2022-07-05T12:34:54;32.80;65.10
9915;DHT22;4996;48.746;9.174;2022-07-05T12:37:23;32.80;65.00
9915;DHT22;4996;48.746;9.174;2022-07-05T12:39:50;33.00;63.80
9915;DHT22;4996;48.746;9.174;2022-07-05T12:42:30;33.40;63.70
9915;DHT22;4996;48.746;9.174;2022-07-05T12:45:14;33.90;63.20
9915;DHT22;4996;48.746;9.174;2022-07-05T12:50:16;34.20;61.50
9915;DHT22;4996;48.746;9.174;2022-07-05T12:53:14;33.90;61.10
9915;DHT22;4996;48.746;9.174;2022-07-05T12:58:52;34.50;60.20
9915;DHT22;4996;48.746;9.174;2022-07-05T13:01:22;35.00;58.90
9915;DHT22;4996;48.746;9.174;2022-07-05T13:06:21;35.90;59.20
9915;DHT22;4996;48.746;9.174;2022-07-05T13:08:56;35.70;58.90
9915;DHT22;4996;48.746;9.174;2022-07-05T13:11:31;34.80;58.70
9915;DHT22;4996;48.746;9.174;2022-07-05T13:13:57;34.40;59.20
9915;DHT22;4996;48.746;9.174;2022-07-05T13:16:22;33.60;59.60
9915;DHT22;4996;48.746;9.174;2022-07-05T13:18:48;33.40;59.00
9915;DHT22;4996;48.746;9.174;2022-07-05T13:21:13;33.70;59.40
9915;DHT22;4996;48.746;9.174;2022-07-05T13:23:39;34.00;59.30
9915;DHT22;4996;48.746;9.174;2022-07-05T13:26:04;34.50;58.80
9915;DHT22;4996;48.746;9.174;2022-07-05T13:28:30;34.20;58.50
9915;DHT22;4996;48.746;9.174;2022-07-05T13:30:55;34.00;60.40
9915;DHT22;4996;48.746;9.174;2022-07-05T13:33:21;34.20;58.50
9915;DHT22;4996;48.746;9.174;2022-07-05T13:35:46;34.10;58.60
9915;DHT22;4996;48.746;9.174;2022-07-05T13:38:12;34.60;58.80
9915;DHT22;4996;48.746;9.174;2022-07-05T13:40:37;33.90;58.20
9915;DHT22;4996;48.746;9.174;2022-07-05T13:43:05;34.30;60.00
9915;DHT22;4996;48.746;9.174;2022-07-05T13:45:30;33.40;58.30
9915;DHT22;4996;48.746;9.174;2022-07-05T13:47:56;32.80;59.70
9915;DHT22;4996;48.746;9.174;2022-07-05T13:50:22;32.60;59.00
9915;DHT22;4996;48.746;9.174;2022-07-05T13:52:57;33.00;59.60
9915;DHT22;4996;48.746;9.174;2022-07-05T13:55:23;33.20;58.40
9915;DHT22;4996;48.746;9.174;2022-07-05T13:57:48;32.60;59.50
9915;DHT22;4996;48.746;9.174;2022-07-05T14:00:14;32.40;59.50
9915;DHT22;4996;48.746;9.174;2022-07-05T14:02:40;31.70;60.00
9915;DHT22;4996;48.746;9.174;2022-07-05T14:05:05;31.10;60.60
9915;DHT22;4996;48.746;9.174;2022-07-05T14:07:31;30.90;62.10
9915;DHT22;4996;48.746;9.174;2022-07-05T14:09:57;30.70;63.40
9915;DHT22;4996;48.746;9.174;2022-07-05T14:12:22;30.50;63.80
9915;DHT22;4996;48.746;9.174;2022-07-05T14:14:48;30.30;63.00
9915;DHT22;4996;48.746;9.174;2022-07-05T14:17:13;30.10;63.60
9915;DHT22;4996;48.746;9.174;2022-07-05T14:19:39;29.80;62.80
9915;DHT22;4996;48.746;9.174;2022-07-05T14:22:04;29.60;63.00
9915;DHT22;4996;48.746;9.174;2022-07-05T14:24:30;29.10;63.60
9915;DHT22;4996;48.746;9.174;2022-07-05T14:26:55;28.70;64.20
9915;DHT22;4996;48.746;9.174;2022-07-05T14:29:21;28.70;64.20
9915;DHT22;4996;48.746;9.174;2022-07-05T14:31:46;28.90;64.30
9915;DHT22;4996;48.746;9.174;2022-07-05T14:34:12;28.90;64.90
9915;DHT22;4996;48.746;9.174;2022-07-05T14:36:37;29.00;64.80
9915;DHT22;4996;48.746;9.174;2022-07-05T14:39:03;29.20;65.30
9915;DHT22;4996;48.746;9.174;2022-07-05T14:41:28;29.10;64.70
9915;DHT22;4996;48.746;9.174;2022-07-05T14:43:54;28.90;63.70
9915;DHT22;4996;48.746;9.174;2022-07-05T14:46:20;28.50;64.60
9915;DHT22;4996;48.746;9.174;2022-07-05T14:48:47;28.50;64.80
9915;DHT22;4996;48.746;9.174;2022-07-05T14:51:13;28.50;65.10
9915;DHT22;4996;48.746;9.174;2022-07-05T14:53:38;28.20;64.80
9915;DHT22;4996;48.746;9.174;2022-07-05T14:56:04;28.20;65.30
9915;DHT22;4996;48.746;9.174;2022-07-05T14:58:29;28.10;65.30
9915;DHT22;4996;48.746;9.174;2022-07-05T15:00:58;27.90;65.30
9915;DHT22;4996;48.746;9.174;2022-07-05T15:03:23;27.80;65.40
9915;DHT22;4996;48.746;9.174;2022-07-05T15:05:53;27.90;65.50
9915;DHT22;4996;48.746;9.174;2022-07-05T15:08:19;27.90;65.90
9915;DHT22;4996;48.746;9.174;2022-07-05T15:10:45;27.80;65.90
9915;DHT22;4996;48.746;9.174;2022-07-05T15:13:12;27.40;65.20
9915;DHT22;4996;48.746;9.174;2022-07-05T15:15:38;27.40;65.60
9915;DHT22;4996;48.746;9.174;2022-07-05T15:18:03;27.50;66.10
9915;DHT22;4996;48.746;9.174;2022-07-05T15:20:29;27.40;65.80
9915;DHT22;4996;48.746;9.174;2022-07-05T15:22:54;27.40;66.20
9915;DHT22;4996;48.746;9.174;2022-07-05T15:25:20;27.40;66.40
9915;DHT22;4996;48.746;9.174;2022-07-05T15:27:45;27.50;66.00
9915;DHT22;4996;48.746;9.174;2022-07-05T15:30:12;27.40;65.60
9915;DHT22;4996;48.746;9.174;2022-07-05T15:32:40;27.50;66.00
9915;DHT22;4996;48.746;9.174;2022-07-05T15:35:06;27.40;65.40
9915;DHT22;4996;48.746;9.174;2022-07-05T15:37:31;27.50;65.60
9915;DHT22;4996;48.746;9.174;2022-07-05T15:39:57;27.50;66.40
9915;DHT22;4996;48.746;9.174;2022-07-05T15:42:24;27.30;66.50
9915;DHT22;4996;48.746;9.174;2022-07-05T15:44:50;27.10;66.00
9915;DHT22;4996;48.746;9.174;2022-07-05T15:47:15;27.10;65.40
9915;DHT22;4996;48.746;9.174;2022-07-05T15:49:41;27.30;65.80
9915;DHT22;4996;48.746;9.174;2022-07-05T15:52:07;27.40;65.30
9915;DHT22;4996;48.746;9.174;2022-07-05T15:54:33;27.30;65.90
9915;DHT22;4996;48.746;9.174;2022-07-05T15:56:59;27.30;66.70
9915;DHT22;4996;48.746;9.174;2022-07-05T15:59:25;27.20;65.10
9915;DHT22;4996;48.746;9.174;2022-07-05T16:01:51;27.10;66.10
9915;DHT22;4996;48.746;9.174;2022-07-05T16:04:17;27.20;66.10
9915;DHT22;4996;48.746;9.174;2022-07-05T16:06:43;27.30;66.10
9915;DHT22;4996;48.746;9.174;2022-07-05T16:09:08;27.30;65.70
9915;DHT22;4996;48.746;9.174;2022-07-05T16:11:34;27.40;66.20
9915;DHT22;4996;48.746;9.174;2022-07-05T16:13:59;27.30;66.20
9915;DHT22;4996;48.746;9.174;2022-07-05T16:16:25;27.30;65.70
9915;DHT22;4996;48.746;9.174;2022-07-05T16:18:51;27.20;66.20
9915;DHT22;4996;48.746;9.174;2022-07-05T16:21:18;27.20;66.90
9915;DHT22;4996;48.746;9.174;2022-07-05T16:23:45;27.10;66.80
9915;DHT22;4996;48.746;9.174;2022-07-05T16:26:13;27.20;66.10
9915;DHT22;4996;48.746;9.174;2022-07-05T16:28:39;27.20;65.90
9915;DHT22;4996;48.746;9.174;2022-07-05T16:31:07;27.30;66.40
9915;DHT22;4996;48.746;9.174;2022-07-05T16:33:38;27.40;66.50